createdAt,value
2024-01-09T00:02:24.677Z,-6.29
2024-01-09T00:04:51.188Z,-6.20
2024-01-09T00:07:17.699Z,-6.21
2024-01-09T00:09:44.303Z,-6.49
2024-01-09T00:12:10.807Z,-6.21
2024-01-09T00:14:37.346Z,-6.21
2024-01-09T00:17:17.089Z,-6.09
2024-01-09T00:19:43.781Z,-6.20
2024-01-09T00:22:10.305Z,-6.12
2024-01-09T00:24:36.827Z,-6.17
2024-01-09T00:27:03.387Z,-6.31
2024-01-09T00:29:29.942Z,-6.33
2024-01-09T00:32:04.298Z,-6.29
2024-01-09T00:34:31.517Z,-6.29
2024-01-09T00:36:58.040Z,-6.15
2024-01-09T00:39:24.480Z,-6.23
2024-01-09T00:41:51.149Z,-6.13
2024-01-09T00:44:18.718Z,-6.14
2024-01-09T00:46:45.507Z,-6.30
2024-01-09T00:49:12.857Z,-6.02
2024-01-09T00:51:39.500Z,-6.27
2024-01-09T00:54:07.018Z,-6.13
2024-01-09T00:56:33.620Z,-6.34
2024-01-09T00:59:00.263Z,-6.11
2024-01-09T01:01:26.807Z,-6.31
2024-01-09T01:03:53.338Z,-6.14
2024-01-09T01:06:19.875Z,-6.36
2024-01-09T01:09:12.949Z,-6.05
2024-01-09T01:11:39.646Z,-6.04
2024-01-09T01:14:06.190Z,-6.21
2024-01-09T01:16:32.646Z,-6.13
2024-01-09T01:18:59.428Z,-6.23
2024-01-09T01:21:25.889Z,-6.05
2024-01-09T01:24:06.724Z,-6.15
2024-01-09T01:26:33.187Z,-6.15
2024-01-09T01:28:59.659Z,-6.40
2024-01-09T01:31:26.111Z,-6.09
2024-01-09T01:33:53.532Z,-6.32
2024-01-09T01:36:28.227Z,-6.21
2024-01-09T01:38:54.708Z,-6.66
2024-01-09T01:41:21.386Z,-6.29
2024-01-09T01:43:47.879Z,-6.40
2024-01-09T01:46:14.420Z,-6.25
2024-01-09T01:48:41.920Z,-6.20
2024-01-09T01:51:08.564Z,-6.41
2024-01-09T01:53:35.411Z,-6.14
2024-01-09T01:56:02.294Z,-6.00
2024-01-09T01:58:33.307Z,-6.53
2024-01-09T02:01:06.792Z,-6.45
2024-01-09T02:03:33.519Z,-6.36
2024-01-09T02:06:02.466Z,-6.32
2024-01-09T02:08:33.765Z,-6.26
2024-01-09T02:11:00.453Z,-6.34
2024-01-09T02:13:26.918Z,-6.36
2024-01-09T02:15:53.432Z,-6.05
2024-01-09T02:18:20.224Z,-6.12
2024-01-09T02:20:47.031Z,-5.99
2024-01-09T02:23:13.597Z,-6.38
2024-01-09T02:25:40.147Z,-6.07
2024-01-09T02:28:20.167Z,-6.31
2024-01-09T02:30:49.164Z,-6.09
2024-01-09T02:33:16.021Z,-6.17
2024-01-09T02:35:42.617Z,-6.21
2024-01-09T02:38:09.242Z,-6.26
2024-01-09T02:40:35.704Z,-6.43
2024-01-09T02:43:20.691Z,-6.05
2024-01-09T02:45:47.226Z,-6.14
2024-01-09T02:48:13.890Z,-6.24
2024-01-09T02:50:40.441Z,-6.17
2024-01-09T02:53:13.266Z,-6.65
2024-01-09T02:55:39.715Z,-6.34
2024-01-09T02:58:06.223Z,-6.49
2024-01-09T03:00:32.904Z,-6.46
2024-01-09T03:02:59.478Z,-6.57
2024-01-09T03:05:26.196Z,-6.50
2024-01-09T03:07:52.744Z,-6.40
2024-01-09T03:10:19.189Z,-6.49
2024-01-09T03:12:45.703Z,-6.29
2024-01-09T03:15:14.236Z,-6.32
2024-01-09T03:17:40.738Z,-6.63
2024-01-09T03:20:08.292Z,-6.29
2024-01-09T03:22:34.818Z,-6.47
2024-01-09T03:25:01.282Z,-6.54
2024-01-09T03:27:27.712Z,-6.42
2024-01-09T03:29:54.143Z,-6.57
2024-01-09T03:32:20.616Z,-6.44
2024-01-09T03:34:47.120Z,-6.58
2024-01-09T03:37:14.648Z,-6.52
2024-01-09T03:39:41.325Z,-6.48
2024-01-09T03:42:07.755Z,-6.45
2024-01-09T03:44:34.234Z,-6.58
2024-01-09T03:47:00.719Z,-6.58
2024-01-09T03:49:27.237Z,-6.65
2024-01-09T03:51:53.809Z,-6.55
2024-01-09T03:54:20.762Z,-6.58
2024-01-09T03:56:52.380Z,-6.44
2024-01-09T03:59:19.001Z,-6.23
2024-01-09T04:01:45.464Z,-6.38
2024-01-09T04:04:12.217Z,-6.37
2024-01-09T04:06:44.593Z,-6.51
2024-01-09T04:09:12.305Z,-6.45
2024-01-09T04:11:43.937Z,-6.66
2024-01-09T04:14:10.909Z,-7.05
2024-01-09T04:16:54.689Z,-6.58
2024-01-09T04:19:21.172Z,-6.66
2024-01-09T04:21:47.656Z,-6.82
2024-01-09T04:24:14.152Z,-6.64
2024-01-09T04:26:40.904Z,-6.55
2024-01-09T04:29:07.360Z,-7.02
2024-01-09T04:31:42.146Z,-6.93
2024-01-09T04:34:09.156Z,-6.98
2024-01-09T04:36:36.400Z,-6.84
2024-01-09T04:39:02.912Z,-6.63
2024-01-09T04:41:29.451Z,-6.72
2024-01-09T04:43:55.913Z,-6.85
2024-01-09T04:46:22.382Z,-6.73
2024-01-09T04:48:49.107Z,-6.87
2024-01-09T04:51:15.640Z,-6.78
2024-01-09T04:53:42.209Z,-7.00
2024-01-09T04:56:09.746Z,-6.82
2024-01-09T04:58:36.315Z,-6.98
2024-01-09T05:01:03.459Z,-7.04
2024-01-09T05:03:29.982Z,-6.82
2024-01-09T05:05:56.596Z,-7.16
2024-01-09T05:08:23.483Z,-6.86
2024-01-09T05:10:49.991Z,-6.94
2024-01-09T05:13:35.092Z,-7.04
2024-01-09T05:16:01.581Z,-6.85
2024-01-09T05:18:43.582Z,-6.99
2024-01-09T05:21:10.198Z,-6.89
2024-01-09T05:23:36.718Z,-7.15
2024-01-09T05:26:11.518Z,-7.01
2024-01-09T05:28:38.221Z,-6.97
2024-01-09T05:31:04.759Z,-7.12
2024-01-09T05:33:32.969Z,-7.01
2024-01-09T05:35:59.628Z,-6.85
2024-01-09T05:38:26.133Z,-7.04
2024-01-09T05:40:57.786Z,-6.81
2024-01-09T05:43:24.314Z,-6.78
2024-01-09T05:45:50.897Z,-7.37
2024-01-09T06:03:28.952Z,-7.09
2024-01-09T06:06:02.923Z,-6.86
2024-01-09T06:08:33.627Z,-6.97
2024-01-09T06:11:00.344Z,-6.58
2024-01-09T06:13:26.856Z,-6.74
2024-01-09T06:15:54.402Z,-6.65
2024-01-09T06:18:21.119Z,-6.89
2024-01-09T06:20:48.078Z,-6.64
2024-01-09T06:23:14.664Z,-6.74
2024-01-09T06:25:41.155Z,-7.06
2024-01-09T06:28:11.347Z,-6.80
2024-01-09T06:30:40.334Z,-7.28
2024-01-09T06:33:07.417Z,-7.00
2024-01-09T06:35:34.113Z,-6.98
2024-01-09T06:38:00.684Z,-6.96
2024-01-09T06:40:27.251Z,-7.05
2024-01-09T06:42:54.107Z,-6.79
2024-01-09T06:45:20.571Z,-7.34
2024-01-09T06:47:47.124Z,-7.15
2024-01-09T06:50:25.626Z,-6.93
2024-01-09T06:52:57.756Z,-7.07
2024-01-09T06:55:24.275Z,-6.89
2024-01-09T06:57:50.810Z,-6.91
2024-01-09T07:00:19.174Z,-7.15
2024-01-09T07:02:46.065Z,-7.06
2024-01-09T07:05:12.723Z,-6.98
2024-01-09T07:07:45.989Z,-6.94
2024-01-09T07:10:16.466Z,-7.12
2024-01-09T07:12:51.047Z,-7.10
2024-01-09T07:15:18.051Z,-6.82
2024-01-09T07:17:48.265Z,-7.08
2024-01-09T07:20:16.054Z,-6.70
2024-01-09T07:22:46.185Z,-6.91
2024-01-09T07:25:15.571Z,-7.22
2024-01-09T07:27:42.452Z,-6.71
2024-01-09T07:30:09.438Z,-7.07
2024-01-09T07:32:36.070Z,-6.99
2024-01-09T07:35:02.855Z,-6.70
2024-01-09T07:37:29.322Z,-7.05
2024-01-09T07:39:55.831Z,-7.14
2024-01-09T07:42:22.302Z,-7.01
2024-01-09T07:44:49.303Z,-6.93
2024-01-09T07:47:15.909Z,-7.13
2024-01-09T07:49:42.449Z,-7.15
2024-01-09T07:52:10.326Z,-6.74
2024-01-09T07:54:40.042Z,-6.88
2024-01-09T07:57:22.076Z,-7.10
2024-01-09T07:59:49.499Z,-6.88
2024-01-09T08:02:16.060Z,-6.88
2024-01-09T08:04:42.705Z,-7.05
2024-01-09T08:07:09.232Z,-6.87
2024-01-09T08:09:35.820Z,-6.72
2024-01-09T08:12:02.332Z,-6.63
2024-01-09T08:14:28.887Z,-6.74
2024-01-09T08:16:55.389Z,-6.51
2024-01-09T08:19:21.924Z,-6.53
2024-01-09T08:21:48.545Z,-6.46
2024-01-09T08:24:19.457Z,-6.40
2024-01-09T08:26:50.092Z,-6.63
2024-01-09T08:29:17.940Z,-6.43
2024-01-09T08:31:49.006Z,-6.49
2024-01-09T08:34:16.506Z,-6.57
2024-01-09T08:36:44.762Z,-6.22
2024-01-09T08:39:11.981Z,-6.84
2024-01-09T08:41:38.843Z,-6.24
2024-01-09T08:44:06.215Z,-6.37
2024-01-09T08:46:32.772Z,-6.55
2024-01-09T08:48:59.344Z,-6.90
2024-01-09T08:51:28.700Z,-6.29
2024-01-09T08:54:00.932Z,-6.55
2024-01-09T08:56:27.488Z,-6.38
2024-01-09T08:58:54.028Z,-6.47
2024-01-09T09:01:22.026Z,-6.15
2024-01-09T09:03:49.440Z,-5.98
2024-01-09T09:06:20.305Z,-6.23
2024-01-09T09:08:46.891Z,-6.32
2024-01-09T09:11:16.248Z,-6.41
2024-01-09T09:13:43.517Z,-6.38
2024-01-09T09:16:10.297Z,-6.40
2024-01-09T09:18:37.068Z,-6.39
2024-01-09T09:21:04.671Z,-6.16
2024-01-09T09:23:32.082Z,-6.30
2024-01-09T09:25:58.947Z,-5.83
2024-01-09T09:28:27.228Z,-5.96
2024-01-09T09:30:57.510Z,-5.95
2024-01-09T09:33:24.229Z,-6.13
2024-01-09T09:35:50.905Z,-6.09
2024-01-09T09:38:17.521Z,-5.74
2024-01-09T09:40:44.174Z,-6.18
2024-01-09T09:43:15.983Z,-5.81
2024-01-09T09:45:44.355Z,-6.01
2024-01-09T09:48:14.190Z,-6.34
2024-01-09T09:50:43.294Z,-5.64
2024-01-09T09:53:11.033Z,-5.82
2024-01-09T09:55:38.175Z,-5.84
2024-01-09T09:58:04.828Z,-5.77
2024-01-09T10:00:31.355Z,-5.65
2024-01-09T10:02:59.598Z,-5.65
2024-01-09T10:05:28.674Z,-5.84
2024-01-09T10:07:57.306Z,-5.61
2024-01-09T10:10:24.661Z,-5.73
2024-01-09T10:12:51.370Z,-5.94
2024-01-09T10:15:32.935Z,-6.13
2024-01-09T10:18:01.102Z,-5.99
2024-01-09T10:20:30.101Z,-6.09
2024-01-09T10:22:56.687Z,-5.57
2024-01-09T10:25:23.161Z,-5.94
2024-01-09T10:27:50.674Z,-5.67
2024-01-09T10:30:17.454Z,-5.90
2024-01-09T10:32:45.811Z,-5.78
2024-01-09T10:35:13.234Z,-5.75
2024-01-09T10:37:39.916Z,-5.38
2024-01-09T10:40:07.101Z,-5.54
2024-01-09T10:42:45.688Z,-5.60
2024-01-09T10:45:12.197Z,-5.56
2024-01-09T10:47:38.892Z,-5.73
2024-01-09T10:50:06.740Z,-5.57
2024-01-09T10:52:35.049Z,-5.27
2024-01-09T10:55:03.896Z,-5.64
2024-01-09T10:57:32.408Z,-5.47
2024-01-09T11:00:01.422Z,-5.22
2024-01-09T11:02:33.735Z,-5.40
2024-01-09T11:05:00.389Z,-5.37
2024-01-09T11:07:37.750Z,-5.16
2024-01-09T11:10:05.324Z,-5.55
2024-01-09T11:12:33.760Z,-5.39
2024-01-09T11:15:12.137Z,-5.58
2024-01-09T11:17:41.949Z,-5.48
2024-01-09T11:20:09.263Z,-5.17
2024-01-09T11:22:38.698Z,-5.33
2024-01-09T11:25:14.217Z,-5.22
2024-01-09T11:27:44.639Z,-5.49
2024-01-09T11:30:11.767Z,-5.19
2024-01-09T11:32:40.999Z,-5.16
2024-01-09T11:35:15.796Z,-5.04
2024-01-09T11:37:52.781Z,-5.07
2024-01-09T11:40:21.496Z,-5.69
2024-01-09T11:42:53.749Z,-5.31
2024-01-09T11:45:25.191Z,-5.12
2024-01-09T11:47:52.317Z,-5.57
2024-01-09T11:50:19.034Z,-5.35
2024-01-09T11:52:48.054Z,-5.58
2024-01-09T11:55:15.469Z,-5.52
2024-01-09T11:57:43.394Z,-5.68
2024-01-09T12:00:11.449Z,-5.33
2024-01-09T12:02:39.039Z,-5.40
2024-01-09T12:05:06.894Z,-5.27
2024-01-09T12:07:44.946Z,-4.75
2024-01-09T12:10:21.282Z,-5.07
2024-01-09T12:13:01.312Z,-5.32
2024-01-09T12:15:28.842Z,-5.18
2024-01-09T12:17:58.766Z,-5.05
2024-01-09T12:20:54.808Z,-5.18
2024-01-09T12:23:21.960Z,-6.06
2024-01-09T12:25:52.101Z,-7.19
2024-01-09T12:28:19.725Z,-7.13
2024-01-09T12:30:46.732Z,-6.47
2024-01-09T12:33:25.765Z,-6.70
2024-01-09T12:35:55.952Z,-5.95
2024-01-09T12:39:01.773Z,-5.14
2024-01-09T12:41:29.737Z,-6.51
2024-01-09T12:43:56.876Z,-5.67
2024-01-09T12:46:32.728Z,-6.85
2024-01-09T12:52:24.116Z,-6.52
2024-01-09T12:54:51.126Z,-7.35
2024-01-09T12:57:35.882Z,-5.94
2024-01-09T13:00:02.688Z,-6.99
2024-01-09T13:02:29.905Z,-7.21
2024-01-09T13:04:56.595Z,-5.45
2024-01-09T13:07:23.114Z,-5.49
2024-01-09T13:09:51.795Z,-5.70
2024-01-09T13:12:19.303Z,-5.66
2024-01-09T13:14:52.784Z,-5.63
2024-01-09T13:17:21.563Z,-5.63
2024-01-09T13:19:51.283Z,-5.71
2024-01-09T13:24:47.343Z,-5.52
2024-01-09T13:27:21.677Z,-5.61
2024-01-09T13:32:45.557Z,-5.65
2024-01-09T13:35:12.125Z,-5.68
2024-01-09T13:37:38.782Z,-5.57
2024-01-09T13:40:09.844Z,-5.62
2024-01-09T13:42:48.728Z,-5.76
2024-01-09T13:45:17.506Z,-5.72
2024-01-09T13:47:45.378Z,-5.89
2024-01-09T13:52:43.653Z,-5.62
2024-01-09T13:55:21.959Z,-5.65
2024-01-09T13:57:49.395Z,-5.90
2024-01-09T14:00:17.804Z,-5.96
2024-01-09T14:02:51.787Z,-5.92
2024-01-09T14:05:20.874Z,-6.00
2024-01-09T14:07:48.277Z,-5.63
2024-01-09T14:10:14.900Z,-5.80
2024-01-09T14:12:41.582Z,-5.95
2024-01-09T14:15:14.223Z,-6.06
2024-01-09T14:17:58.088Z,-6.23
2024-01-09T14:20:26.407Z,-6.26
2024-01-09T14:22:56.010Z,-6.22
2024-01-09T14:25:46.130Z,-6.10
2024-01-09T14:28:16.276Z,-6.40
2024-01-09T14:30:59.208Z,-6.32
2024-01-09T14:33:27.830Z,-6.30
2024-01-09T14:35:54.519Z,-6.40
2024-01-09T14:38:28.190Z,-6.66
2024-01-09T14:41:00.928Z,-6.70
2024-01-09T14:43:34.885Z,-7.02
2024-01-09T14:46:16.911Z,-6.90
2024-01-09T14:48:43.546Z,-7.08
2024-01-09T14:51:10.281Z,-7.13
2024-01-09T14:53:38.778Z,-7.00
2024-01-09T14:56:08.626Z,-7.00
2024-01-09T14:58:38.380Z,-7.18
2024-01-09T15:01:05.786Z,-6.88
2024-01-09T15:03:43.394Z,-7.11
2024-01-09T15:06:10.742Z,-7.01
2024-01-09T15:08:38.172Z,-7.04
2024-01-09T15:11:14.116Z,-7.14
2024-01-09T15:13:40.701Z,-7.45
2024-01-09T15:16:07.253Z,-7.21
2024-01-09T15:18:33.841Z,-7.32
2024-01-09T15:21:01.493Z,-7.13
2024-01-09T15:23:31.130Z,-7.25
2024-01-09T15:25:58.225Z,-7.30
2024-01-09T15:28:27.832Z,-7.09
2024-01-09T15:30:54.481Z,-7.14
2024-01-09T15:33:21.051Z,-7.17
2024-01-09T15:35:47.509Z,-7.29
2024-01-09T15:38:14.029Z,-7.26
2024-01-09T15:40:48.662Z,-7.25
2024-01-09T15:43:15.924Z,-7.21
2024-01-09T15:45:47.393Z,-7.01
2024-01-09T15:48:13.913Z,-7.13
2024-01-09T15:50:40.411Z,-7.14
2024-01-09T15:53:07.181Z,-7.08
2024-01-09T15:55:42.890Z,-7.14
2024-01-09T15:58:14.385Z,-7.26
2024-01-09T16:00:42.368Z,-7.25
2024-01-09T16:03:09.603Z,-7.23
2024-01-09T16:05:36.114Z,-7.17
2024-01-09T16:08:02.665Z,-7.12
2024-01-09T16:10:30.776Z,-7.20
2024-01-09T16:13:10.781Z,-7.48
2024-01-09T16:15:40.493Z,-7.50
2024-01-09T16:18:23.388Z,-7.22
2024-01-09T16:20:49.974Z,-7.05
2024-01-09T16:23:16.526Z,-7.10
2024-01-09T16:25:43.029Z,-7.02
2024-01-09T16:28:23.696Z,-7.21
2024-01-09T16:30:50.294Z,-7.15
2024-01-09T16:33:17.284Z,-7.17
2024-01-09T16:35:43.824Z,-7.24
2024-01-09T16:38:10.331Z,-7.24
2024-01-09T16:40:37.259Z,-7.26
2024-01-09T16:43:03.829Z,-7.21
2024-01-09T16:45:39.380Z,-7.22
2024-01-09T16:48:06.043Z,-7.28
2024-01-09T16:50:32.672Z,-7.27
2024-01-09T16:53:04.128Z,-7.23
2024-01-09T16:55:30.786Z,-7.05
2024-01-09T16:58:03.207Z,-7.11
2024-01-09T17:00:29.961Z,-7.11
2024-01-09T17:02:56.471Z,-7.33
2024-01-09T17:05:23.049Z,-7.23
2024-01-09T17:07:49.691Z,-7.16
2024-01-09T17:10:18.635Z,-7.27
2024-01-09T17:12:45.072Z,-7.26
2024-01-09T17:15:29.917Z,-7.10
2024-01-09T17:17:58.026Z,-7.29
2024-01-09T17:20:42.688Z,-7.29
2024-01-09T17:23:10.939Z,-7.30
2024-01-09T17:25:37.992Z,-7.30
2024-01-09T17:28:06.954Z,-7.09
2024-01-09T17:30:33.467Z,-7.26
2024-01-09T17:33:00.929Z,-7.19
2024-01-09T17:35:27.427Z,-7.14
2024-01-09T17:37:54.336Z,-7.17
2024-01-09T17:40:21.154Z,-7.20
2024-01-09T17:42:48.724Z,-7.21
2024-01-09T17:45:17.737Z,-7.23
2024-01-09T17:47:50.145Z,-7.18
2024-01-09T17:50:17.075Z,-7.12
2024-01-09T17:52:49.193Z,-7.28
2024-01-09T17:55:15.826Z,-7.29
2024-01-09T17:57:43.015Z,-7.31
2024-01-09T18:00:10.729Z,-7.23
2024-01-09T18:02:41.720Z,-7.16
2024-01-09T18:05:08.553Z,-7.22
2024-01-09T18:07:35.140Z,-7.45
2024-01-09T18:10:14.282Z,-7.22
2024-01-09T18:12:42.095Z,-7.42
2024-01-09T18:15:12.532Z,-7.28
2024-01-09T18:17:43.625Z,-7.32
2024-01-09T18:20:10.855Z,-7.33
2024-01-09T18:22:46.677Z,-7.27
2024-01-09T18:25:14.025Z,-7.26
2024-01-09T18:27:40.843Z,-7.33
2024-01-09T18:30:09.869Z,-7.27
2024-01-09T18:32:50.921Z,-7.37
2024-01-09T18:35:17.585Z,-7.28
2024-01-09T18:37:50.171Z,-7.24
2024-01-09T18:40:18.421Z,-7.21
2024-01-09T18:42:50.042Z,-7.16
2024-01-09T18:45:16.765Z,-7.24
2024-01-09T18:47:43.458Z,-7.27
2024-01-09T18:50:11.602Z,-7.03
2024-01-09T18:52:43.258Z,-7.31
2024-01-09T18:55:10.191Z,-7.34
2024-01-09T18:57:36.636Z,-7.30
2024-01-09T19:00:06.586Z,-7.26
2024-01-09T19:02:34.167Z,-7.24
2024-01-09T19:05:00.819Z,-7.43
2024-01-09T19:07:42.959Z,-7.30
2024-01-09T19:10:12.635Z,-7.54
2024-01-09T19:12:40.676Z,-7.34
2024-01-09T19:15:10.692Z,-7.28
2024-01-09T19:17:37.256Z,-7.34
2024-01-09T19:20:04.447Z,-7.31
2024-01-09T19:22:31.581Z,-7.38
2024-01-09T19:24:58.046Z,-7.44
2024-01-09T19:27:28.706Z,-7.58
2024-01-09T19:29:55.136Z,-7.66
2024-01-09T19:32:29.873Z,-7.57
2024-01-09T19:35:01.135Z,-7.36
2024-01-09T19:37:28.782Z,-7.29
2024-01-09T19:39:55.341Z,-7.26
2024-01-09T19:42:22.893Z,-7.21
2024-01-09T19:44:52.008Z,-7.24
2024-01-09T19:47:20.044Z,-7.23
2024-01-09T19:49:49.901Z,-7.31
2024-01-09T19:52:16.457Z,-7.36
2024-01-09T19:54:42.983Z,-7.46
2024-01-09T19:57:19.715Z,-7.41
2024-01-09T20:00:01.320Z,-7.39
2024-01-09T20:02:29.881Z,-7.49
2024-01-09T20:05:08.343Z,-7.37
2024-01-09T20:07:35.428Z,-7.39
2024-01-09T20:10:02.059Z,-7.55
2024-01-09T20:12:30.281Z,-7.45
2024-01-09T20:14:58.305Z,-7.40
2024-01-09T20:17:28.875Z,-7.35
2024-01-09T20:20:03.771Z,-7.37
2024-01-09T20:22:31.137Z,-7.55
2024-01-09T20:24:59.789Z,-7.45
2024-01-09T20:27:54.153Z,-7.61
2024-01-09T20:30:22.210Z,-7.98
2024-01-09T20:32:53.010Z,-8.06
2024-01-09T20:35:20.795Z,-8.28
2024-01-09T20:37:48.333Z,-8.47
2024-01-09T20:40:14.966Z,-8.21
2024-01-09T20:42:42.482Z,-8.65
2024-01-09T20:45:10.872Z,-8.41
2024-01-09T20:47:39.141Z,-8.46
2024-01-09T20:50:06.164Z,-8.47
2024-01-09T20:52:32.757Z,-8.80
2024-01-09T20:54:59.420Z,-8.80
2024-01-09T20:57:29.557Z,-8.82
2024-01-09T20:59:56.123Z,-8.71
2024-01-09T21:02:22.720Z,-8.89
2024-01-09T21:04:49.351Z,-8.94
2024-01-09T21:07:17.780Z,-8.90
2024-01-09T21:09:50.439Z,-8.89
2024-01-09T21:12:17.141Z,-8.80
2024-01-09T21:14:45.242Z,-8.58
2024-01-09T21:17:12.623Z,-8.61
2024-01-09T21:19:41.597Z,-8.61
2024-01-09T21:22:08.754Z,-8.61
2024-01-09T21:24:35.299Z,-8.52
2024-01-09T21:27:01.779Z,-8.55
2024-01-09T21:29:28.218Z,-8.42
2024-01-09T21:31:55.928Z,-8.26
2024-01-09T21:34:23.580Z,-8.36
2024-01-09T21:36:50.168Z,-8.40
2024-01-09T21:39:17.186Z,-8.30
2024-01-09T21:41:48.673Z,-8.36
2024-01-09T21:44:15.184Z,-8.22
2024-01-09T21:46:41.699Z,-8.47
2024-01-09T21:49:08.348Z,-8.31
2024-01-09T21:51:34.780Z,-8.34
2024-01-09T21:54:02.013Z,-8.23
2024-01-09T21:56:28.510Z,-8.21
2024-01-09T21:58:56.005Z,-8.16
2024-01-09T22:01:25.594Z,-8.04
2024-01-09T22:03:52.095Z,-8.16
2024-01-09T22:06:18.938Z,-8.00
2024-01-09T22:08:48.531Z,-8.00
2024-01-09T22:11:16.067Z,-7.97
2024-01-09T22:13:43.628Z,-7.95
2024-01-09T22:16:11.855Z,-7.85
2024-01-09T22:18:38.427Z,-7.82
2024-01-09T22:21:05.988Z,-7.64
2024-01-09T22:23:33.413Z,-7.61
2024-01-09T22:26:03.115Z,-7.47
2024-01-09T22:28:36.410Z,-7.51
2024-01-09T22:31:03.016Z,-7.34
2024-01-09T22:33:29.583Z,-7.38
2024-01-09T22:35:58.852Z,-7.27
2024-01-09T22:38:26.828Z,-7.23
2024-01-09T22:40:53.682Z,-7.19
2024-01-09T22:43:20.156Z,-7.14
2024-01-09T22:45:48.166Z,-7.04
2024-01-09T22:48:14.702Z,-7.02
2024-01-09T22:50:44.453Z,-6.92
2024-01-09T22:53:12.349Z,-6.88
2024-01-09T22:55:38.812Z,-7.02
2024-01-09T22:58:05.284Z,-7.13
2024-01-09T23:00:35.217Z,-7.04
2024-01-09T23:03:02.336Z,-7.11
2024-01-09T23:05:29.110Z,-6.94
2024-01-09T23:07:57.702Z,-6.97
2024-01-09T23:10:24.397Z,-6.88
2024-01-09T23:12:50.905Z,-7.20
2024-01-09T23:15:17.524Z,-7.03
2024-01-09T23:17:46.278Z,-7.08
2024-01-09T23:20:15.172Z,-7.05
2024-01-09T23:22:41.813Z,-7.01
2024-01-09T23:25:12.738Z,-7.07
2024-01-09T23:27:43.418Z,-7.24
2024-01-09T23:30:10.360Z,-7.19
2024-01-09T23:32:36.898Z,-7.26
2024-01-09T23:35:03.781Z,-7.27
2024-01-09T23:37:32.893Z,-7.21
2024-01-09T23:39:59.425Z,-7.34
2024-01-09T23:42:26.393Z,-7.33
2024-01-09T23:44:56.588Z,-7.28
2024-01-09T23:47:23.712Z,-7.40
2024-01-09T23:49:50.306Z,-7.42
2024-01-09T23:52:16.820Z,-7.37
2024-01-09T23:54:43.275Z,-7.49
2024-01-09T23:57:12.396Z,-7.46
2024-01-09T23:59:39.114Z,-7.44
